sensor_id;sensor_type;location;lat;lon;timestamp;temperature;humidity
43581;DHT22;29175;51.030;4.606;2022-07-06T00:02:13;16.60;99.20
43581;DHT22;29175;51.030;4.606;2022-07-06T00:04:39;16.60;99.00
43581;DHT22;29175;51.030;4.606;2022-07-06T00:07:07;16.60;99.00
43581;DHT22;29175;51.030;4.606;2022-07-06T00:09:38;16.60;99.00
43581;DHT22;29175;51.030;4.606;2022-07-06T00:12:07;16.50;99.20
43581;DHT22;29175;51.030;4.606;2022-07-06T00:14:37;16.40;99.20
43581;DHT22;29175;51.030;4.606;2022-07-06T00:17:04;16.40;99.20
43581;DHT22;29175;51.030;4.606;2022-07-06T00:19:30;16.40;99.40
43581;DHT22;29175;51.030;4.606;2022-07-06T00:21:58;16.40;99.40
43581;DHT22;29175;51.030;4.606;2022-07-06T00:24:24;16.40;99.40
43581;DHT22;29175;51.030;4.606;2022-07-06T00:26:49;16.40;99.40
43581;DHT22;29175;51.030;4.606;2022-07-06T00:29:15;16.50;99.50
43581;DHT22;29175;51.030;4.606;2022-07-06T00:31:44;16.50;99.30
43581;DHT22;29175;51.030;4.606;2022-07-06T00:34:10;16.40;99.30
43581;DHT22;29175;51.030;4.606;2022-07-06T00:36:39;16.30;99.50
43581;DHT22;29175;51.030;4.606;2022-07-06T00:39:07;16.30;99.50
43581;DHT22;29175;51.030;4.606;2022-07-06T00:41:34;16.30;99.40
43581;DHT22;29175;51.030;4.606;2022-07-06T00:44:07;16.30;99.40
43581;DHT22;29175;51.030;4.606;2022-07-06T00:46:34;16.20;99.50
43581;DHT22;29175;51.030;4.606;2022-07-06T00:49:01;16.10;99.50
43581;DHT22;29175;51.030;4.606;2022-07-06T00:51:37;16.00;99.80
43581;DHT22;29175;51.030;4.606;2022-07-06T00:54:07;15.90;99.90
43581;DHT22;29175;51.030;4.606;2022-07-06T00:56:37;15.90;99.90
43581;DHT22;29175;51.030;4.606;2022-07-06T00:59:05;15.90;99.90
43581;DHT22;29175;51.030;4.606;2022-07-06T01:01:32;16.00;99.90
43581;DHT22;29175;51.030;4.606;2022-07-06T01:03:57;16.00;99.90
43581;DHT22;29175;51.030;4.606;2022-07-06T01:06:23;15.90;99.90
43581;DHT22;29175;51.030;4.606;2022-07-06T01:08:52;15.90;99.90
43581;DHT22;29175;51.030;4.606;2022-07-06T01:11:20;15.90;99.90
43581;DHT22;29175;51.030;4.606;2022-07-06T01:13:47;15.80;99.90
43581;DHT22;29175;51.030;4.606;2022-07-06T01:16:15;15.80;99.90
43581;DHT22;29175;51.030;4.606;2022-07-06T01:18:45;15.80;99.90
43581;DHT22;29175;51.030;4.606;2022-07-06T01:21:13;15.80;99.90
43581;DHT22;29175;51.030;4.606;2022-07-06T01:23:46;15.70;99.90
43581;DHT22;29175;51.030;4.606;2022-07-06T01:26:18;15.60;99.90
43581;DHT22;29175;51.030;4.606;2022-07-06T01:28:51;15.60;99.90
43581;DHT22;29175;51.030;4.606;2022-07-06T01:31:24;15.50;99.90
43581;DHT22;29175;51.030;4.606;2022-07-06T01:33:52;15.50;99.90
43581;DHT22;29175;51.030;4.606;2022-07-06T01:36:20;15.60;99.90
43581;DHT22;29175;51.030;4.606;2022-07-06T01:38:55;15.50;99.90
43581;DHT22;29175;51.030;4.606;2022-07-06T01:41:26;15.50;99.90
43581;DHT22;29175;51.030;4.606;2022-07-06T01:43:55;15.50;99.90
43581;DHT22;29175;51.030;4.606;2022-07-06T01:46:22;15.50;99.90
43581;DHT22;29175;51.030;4.606;2022-07-06T01:48:48;15.50;99.90
43581;DHT22;29175;51.030;4.606;2022-07-06T01:51:16;15.50;99.90
43581;DHT22;29175;51.030;4.606;2022-07-06T01:53:42;15.50;99.90
43581;DHT22;29175;51.030;4.606;2022-07-06T01:56:08;15.40;99.90
43581;DHT22;29175;51.030;4.606;2022-07-06T01:58:35;15.40;99.90
43581;DHT22;29175;51.030;4.606;2022-07-06T02:01:08;15.50;99.90
43581;DHT22;29175;51.030;4.606;2022-07-06T02:03:40;15.40;99.90
43581;DHT22;29175;51.030;4.606;2022-07-06T02:06:12;15.40;99.90
43581;DHT22;29175;51.030;4.606;2022-07-06T02:08:41;15.30;99.90
43581;DHT22;29175;51.030;4.606;2022-07-06T02:11:09;15.30;99.90
43581;DHT22;29175;51.030;4.606;2022-07-06T02:13:36;15.30;99.90
43581;DHT22;29175;51.030;4.606;2022-07-06T02:16:03;15.30;99.90
43581;DHT22;29175;51.030;4.606;2022-07-06T02:18:32;15.30;99.90
43581;DHT22;29175;51.030;4.606;2022-07-06T02:21:00;15.20;99.90
43581;DHT22;29175;51.030;4.606;2022-07-06T02:23:32;15.10;99.90
43581;DHT22;29175;51.030;4.606;2022-07-06T02:25:58;15.10;99.90
43581;DHT22;29175;51.030;4.606;2022-07-06T02:28:27;15.10;99.90
43581;DHT22;29175;51.030;4.606;2022-07-06T02:30:53;15.10;99.90
43581;DHT22;29175;51.030;4.606;2022-07-06T02:33:19;15.20;99.90
43581;DHT22;29175;51.030;4.606;2022-07-06T02:35:48;15.20;99.90
43581;DHT22;29175;51.030;4.606;2022-07-06T02:38:15;15.40;99.90
43581;DHT22;29175;51.030;4.606;2022-07-06T02:40:44;15.40;99.90
43581;DHT22;29175;51.030;4.606;2022-07-06T02:43:10;15.40;99.90
43581;DHT22;29175;51.030;4.606;2022-07-06T02:45:39;15.40;99.90
43581;DHT22;29175;51.030;4.606;2022-07-06T02:48:06;15.40;99.90
43581;DHT22;29175;51.030;4.606;2022-07-06T02:50:33;15.30;99.90
43581;DHT22;29175;51.030;4.606;2022-07-06T02:53:01;15.30;99.90
43581;DHT22;29175;51.030;4.606;2022-07-06T02:55:28;15.30;99.90
43581;DHT22;29175;51.030;4.606;2022-07-06T02:57:56;15.40;99.90
43581;DHT22;29175;51.030;4.606;2022-07-06T03:00:28;15.40;99.90
43581;DHT22;29175;51.030;4.606;2022-07-06T03:02:53;15.30;99.90
43581;DHT22;29175;51.030;4.606;2022-07-06T03:05:19;15.40;99.90
43581;DHT22;29175;51.030;4.606;2022-07-06T03:07:47;15.30;99.90
43581;DHT22;29175;51.030;4.606;2022-07-06T03:10:14;15.30;99.90
43581;DHT22;29175;51.030;4.606;2022-07-06T03:12:43;15.20;99.90
43581;DHT22;29175;51.030;4.606;2022-07-06T03:15:11;15.10;99.90
43581;DHT22;29175;51.030;4.606;2022-07-06T03:17:40;15.00;99.90
43581;DHT22;29175;51.030;4.606;2022-07-06T03:20:06;15.00;99.90
43581;DHT22;29175;51.030;4.606;2022-07-06T03:22:35;14.90;99.90
43581;DHT22;29175;51.030;4.606;2022-07-06T03:25:04;14.90;99.90
43581;DHT22;29175;51.030;4.606;2022-07-06T03:27:33;14.80;99.90
43581;DHT22;29175;51.030;4.606;2022-07-06T03:29:59;14.80;99.90
43581;DHT22;29175;51.030;4.606;2022-07-06T03:32:26;14.70;99.90
43581;DHT22;29175;51.030;4.606;2022-07-06T03:34:51;14.80;99.90
43581;DHT22;29175;51.030;4.606;2022-07-06T03:37:18;14.90;99.90
43581;DHT22;29175;51.030;4.606;2022-07-06T03:39:45;14.90;99.90
43581;DHT22;29175;51.030;4.606;2022-07-06T03:42:13;15.00;99.90
43581;DHT22;29175;51.030;4.606;2022-07-06T03:44:40;14.90;99.90
43581;DHT22;29175;51.030;4.606;2022-07-06T03:47:06;15.00;99.90
43581;DHT22;29175;51.030;4.606;2022-07-06T03:49:32;15.00;99.90
43581;DHT22;29175;51.030;4.606;2022-07-06T03:51:59;15.00;99.90
43581;DHT22;29175;51.030;4.606;2022-07-06T03:54:26;15.00;99.90
43581;DHT22;29175;51.030;4.606;2022-07-06T03:56:52;15.10;99.90
43581;DHT22;29175;51.030;4.606;2022-07-06T03:59:21;15.10;99.90
43581;DHT22;29175;51.030;4.606;2022-07-06T04:01:47;15.20;99.90
43581;DHT22;29175;51.030;4.606;2022-07-06T04:04:12;15.30;99.90
43581;DHT22;29175;51.030;4.606;2022-07-06T04:06:38;15.30;99.90
43581;DHT22;29175;51.030;4.606;2022-07-06T04:09:08;15.30;99.90
43581;DHT22;29175;51.030;4.606;2022-07-06T04:11:38;15.30;99.90
43581;DHT22;29175;51.030;4.606;2022-07-06T04:14:03;15.20;99.90
43581;DHT22;29175;51.030;4.606;2022-07-06T04:16:30;15.40;99.90
43581;DHT22;29175;51.030;4.606;2022-07-06T04:18:56;15.40;99.90
43581;DHT22;29175;51.030;4.606;2022-07-06T04:21:27;15.40;99.90
43581;DHT22;29175;51.030;4.606;2022-07-06T04:23:53;15.70;99.90
43581;DHT22;29175;51.030;4.606;2022-07-06T04:26:22;15.60;99.90
43581;DHT22;29175;51.030;4.606;2022-07-06T04:28:50;15.50;99.90
43581;DHT22;29175;51.030;4.606;2022-07-06T04:31:16;15.50;99.90
43581;DHT22;29175;51.030;4.606;2022-07-06T04:33:44;15.60;99.90
43581;DHT22;29175;51.030;4.606;2022-07-06T04:36:11;15.70;99.90
43581;DHT22;29175;51.030;4.606;2022-07-06T04:38:38;15.80;99.90
43581;DHT22;29175;51.030;4.606;2022-07-06T04:41:04;15.70;99.90
43581;DHT22;29175;51.030;4.606;2022-07-06T04:43:32;15.80;99.90
43581;DHT22;29175;51.030;4.606;2022-07-06T04:45:59;15.90;99.90
43581;DHT22;29175;51.030;4.606;2022-07-06T04:48:33;16.00;99.90
43581;DHT22;29175;51.030;4.606;2022-07-06T04:51:02;16.20;99.90
43581;DHT22;29175;51.030;4.606;2022-07-06T04:53:28;16.00;99.90
43581;DHT22;29175;51.030;4.606;2022-07-06T04:55:55;16.00;99.90
43581;DHT22;29175;51.030;4.606;2022-07-06T04:58:24;16.10;99.90
43581;DHT22;29175;51.030;4.606;2022-07-06T05:00:51;16.20;99.90
43581;DHT22;29175;51.030;4.606;2022-07-06T05:03:20;16.20;99.90
43581;DHT22;29175;51.030;4.606;2022-07-06T05:05:48;16.40;99.90
43581;DHT22;29175;51.030;4.606;2022-07-06T05:08:14;16.40;99.90
43581;DHT22;29175;51.030;4.606;2022-07-06T05:10:40;16.50;99.90
43581;DHT22;29175;51.030;4.606;2022-07-06T05:13:08;16.50;99.90
43581;DHT22;29175;51.030;4.606;2022-07-06T05:15:37;16.60;99.90
43581;DHT22;29175;51.030;4.606;2022-07-06T05:18:06;16.80;99.90
43581;DHT22;29175;51.030;4.606;2022-07-06T05:20:34;16.90;99.90
43581;DHT22;29175;51.030;4.606;2022-07-06T05:23:03;17.00;99.90
43581;DHT22;29175;51.030;4.606;2022-07-06T05:25:29;17.00;99.90
43581;DHT22;29175;51.030;4.606;2022-07-06T05:27:59;17.00;99.90
43581;DHT22;29175;51.030;4.606;2022-07-06T05:30:25;17.00;99.90
43581;DHT22;29175;51.030;4.606;2022-07-06T05:32:54;17.10;99.90
43581;DHT22;29175;51.030;4.606;2022-07-06T05:35:23;17.20;99.90
43581;DHT22;29175;51.030;4.606;2022-07-06T05:37:49;17.20;99.90
43581;DHT22;29175;51.030;4.606;2022-07-06T05:40:15;17.30;99.90
43581;DHT22;29175;51.030;4.606;2022-07-06T05:42:44;17.30;99.90
43581;DHT22;29175;51.030;4.606;2022-07-06T05:45:12;17.40;99.90
43581;DHT22;29175;51.030;4.606;2022-07-06T05:47:39;17.50;99.90
43581;DHT22;29175;51.030;4.606;2022-07-06T05:50:26;17.50;99.90
43581;DHT22;29175;51.030;4.606;2022-07-06T05:53:01;17.50;99.90
43581;DHT22;29175;51.030;4.606;2022-07-06T05:55:30;17.60;99.90
43581;DHT22;29175;51.030;4.606;2022-07-06T05:57:59;17.70;99.90
43581;DHT22;29175;51.030;4.606;2022-07-06T06:00:27;17.90;99.90
43581;DHT22;29175;51.030;4.606;2022-07-06T06:02:53;18.00;99.90
43581;DHT22;29175;51.030;4.606;2022-07-06T06:05:19;18.10;99.90
43581;DHT22;29175;51.030;4.606;2022-07-06T06:07:45;18.30;99.90
43581;DHT22;29175;51.030;4.606;2022-07-06T06:10:17;18.40;99.90
43581;DHT22;29175;51.030;4.606;2022-07-06T06:12:44;18.60;99.90
43581;DHT22;29175;51.030;4.606;2022-07-06T06:15:11;18.80;99.90
43581;DHT22;29175;51.030;4.606;2022-07-06T06:17:37;19.10;99.90
43581;DHT22;29175;51.030;4.606;2022-07-06T06:20:07;19.20;99.90
43581;DHT22;29175;51.030;4.606;2022-07-06T06:22:53;19.50;99.80
43581;DHT22;29175;51.030;4.606;2022-07-06T06:25:26;19.70;99.20
43581;DHT22;29175;51.030;4.606;2022-07-06T06:27:52;19.90;99.00
43581;DHT22;29175;51.030;4.606;2022-07-06T06:30:18;20.10;98.60
43581;DHT22;29175;51.030;4.606;2022-07-06T06:32:44;20.30;97.60
43581;DHT22;29175;51.030;4.606;2022-07-06T06:35:09;20.40;97.10
43581;DHT22;29175;51.030;4.606;2022-07-06T06:37:35;20.60;97.20
43581;DHT22;29175;51.030;4.606;2022-07-06T06:40:02;20.70;97.50
43581;DHT22;29175;51.030;4.606;2022-07-06T06:42:28;21.30;97.20
43581;DHT22;29175;51.030;4.606;2022-07-06T06:44:53;22.10;95.50
43581;DHT22;29175;51.030;4.606;2022-07-06T06:47:19;23.00;94.20
43581;DHT22;29175;51.030;4.606;2022-07-06T06:49:45;23.90;92.80
43581;DHT22;29175;51.030;4.606;2022-07-06T06:52:11;24.50;90.80
43581;DHT22;29175;51.030;4.606;2022-07-06T06:54:37;24.50;90.50
43581;DHT22;29175;51.030;4.606;2022-07-06T06:57:03;24.90;91.00
43581;DHT22;29175;51.030;4.606;2022-07-06T06:59:28;25.00;90.00
43581;DHT22;29175;51.030;4.606;2022-07-06T07:01:55;25.20;88.20
43581;DHT22;29175;51.030;4.606;2022-07-06T07:04:20;25.60;87.10
43581;DHT22;29175;51.030;4.606;2022-07-06T07:06:46;25.20;85.60
43581;DHT22;29175;51.030;4.606;2022-07-06T07:09:12;25.30;85.50
43581;DHT22;29175;51.030;4.606;2022-07-06T07:11:37;24.80;85.30
43581;DHT22;29175;51.030;4.606;2022-07-06T07:14:03;24.90;84.40
43581;DHT22;29175;51.030;4.606;2022-07-06T07:16:29;24.70;85.00
43581;DHT22;29175;51.030;4.606;2022-07-06T07:18:55;24.90;86.50
43581;DHT22;29175;51.030;4.606;2022-07-06T07:21:21;25.40;86.00
43581;DHT22;29175;51.030;4.606;2022-07-06T07:23:46;25.60;83.90
43581;DHT22;29175;51.030;4.606;2022-07-06T07:26:12;25.80;84.60
43581;DHT22;29175;51.030;4.606;2022-07-06T07:28:38;26.50;83.50
43581;DHT22;29175;51.030;4.606;2022-07-06T07:31:04;27.40;81.20
43581;DHT22;29175;51.030;4.606;2022-07-06T07:33:30;27.50;80.90
43581;DHT22;29175;51.030;4.606;2022-07-06T07:35:56;28.30;79.60
43581;DHT22;29175;51.030;4.606;2022-07-06T07:38:22;28.30;77.70
43581;DHT22;29175;51.030;4.606;2022-07-06T07:40:47;28.60;76.40
43581;DHT22;29175;51.030;4.606;2022-07-06T07:43:13;29.30;77.40
43581;DHT22;29175;51.030;4.606;2022-07-06T07:45:39;29.60;74.20
43581;DHT22;29175;51.030;4.606;2022-07-06T07:48:05;29.60;75.90
43581;DHT22;29175;51.030;4.606;2022-07-06T07:50:31;30.80;73.70
43581;DHT22;29175;51.030;4.606;2022-07-06T07:52:57;30.70;73.40
43581;DHT22;29175;51.030;4.606;2022-07-06T07:55:22;30.80;71.80
43581;DHT22;29175;51.030;4.606;2022-07-06T07:57:48;30.80;72.30
43581;DHT22;29175;51.030;4.606;2022-07-06T08:00:16;29.60;74.60
43581;DHT22;29175;51.030;4.606;2022-07-06T08:02:41;30.70;72.20
43581;DHT22;29175;51.030;4.606;2022-07-06T08:05:07;31.20;69.70
43581;DHT22;29175;51.030;4.606;2022-07-06T08:07:33;30.30;69.20
43581;DHT22;29175;51.030;4.606;2022-07-06T08:09:59;30.50;71.00
43581;DHT22;29175;51.030;4.606;2022-07-06T08:12:24;31.60;69.20
43581;DHT22;29175;51.030;4.606;2022-07-06T08:14:52;32.50;66.70
43581;DHT22;29175;51.030;4.606;2022-07-06T08:17:17;32.90;68.00
43581;DHT22;29175;51.030;4.606;2022-07-06T08:19:43;32.10;66.00
43581;DHT22;29175;51.030;4.606;2022-07-06T08:22:08;32.60;67.70
43581;DHT22;29175;51.030;4.606;2022-07-06T08:24:35;32.10;67.40
43581;DHT22;29175;51.030;4.606;2022-07-06T08:27:02;32.70;66.20
43581;DHT22;29175;51.030;4.606;2022-07-06T08:29:29;32.60;64.80
43581;DHT22;29175;51.030;4.606;2022-07-06T08:31:55;32.20;66.70
43581;DHT22;29175;51.030;4.606;2022-07-06T08:34:21;32.60;67.30
43581;DHT22;29175;51.030;4.606;2022-07-06T08:36:48;32.10;65.40
43581;DHT22;29175;51.030;4.606;2022-07-06T08:39:14;32.10;65.90
43581;DHT22;29175;51.030;4.606;2022-07-06T08:41:41;33.00;65.40
43581;DHT22;29175;51.030;4.606;2022-07-06T08:44:08;33.60;63.00
43581;DHT22;29175;51.030;4.606;2022-07-06T08:46:37;34.50;63.30
43581;DHT22;29175;51.030;4.606;2022-07-06T08:49:06;35.00;63.80
43581;DHT22;29175;51.030;4.606;2022-07-06T08:51:32;34.70;63.10
43581;DHT22;29175;51.030;4.606;2022-07-06T08:53:58;34.60;63.90
43581;DHT22;29175;51.030;4.606;2022-07-06T08:56:25;34.30;63.10
43581;DHT22;29175;51.030;4.606;2022-07-06T08:58:51;34.30;61.80
43581;DHT22;29175;51.030;4.606;2022-07-06T09:01:18;33.90;63.30
43581;DHT22;29175;51.030;4.606;2022-07-06T09:03:45;32.60;64.00
43581;DHT22;29175;51.030;4.606;2022-07-06T09:06:25;31.30;68.80
43581;DHT22;29175;51.030;4.606;2022-07-06T09:08:54;31.10;69.00
43581;DHT22;29175;51.030;4.606;2022-07-06T09:11:24;30.90;68.00
43581;DHT22;29175;51.030;4.606;2022-07-06T09:13:51;31.00;66.10
43581;DHT22;29175;51.030;4.606;2022-07-06T09:16:17;30.70;67.30
43581;DHT22;29175;51.030;4.606;2022-07-06T09:18:46;30.00;68.20
43581;DHT22;29175;51.030;4.606;2022-07-06T09:21:23;28.80;70.60
43581;DHT22;29175;51.030;4.606;2022-07-06T09:23:56;28.70;70.60
43581;DHT22;29175;51.030;4.606;2022-07-06T09:26:23;27.90;69.90
43581;DHT22;29175;51.030;4.606;2022-07-06T09:28:49;27.70;71.90
43581;DHT22;29175;51.030;4.606;2022-07-06T09:31:15;27.90;74.00
43581;DHT22;29175;51.030;4.606;2022-07-06T09:34:03;28.20;73.10
43581;DHT22;29175;51.030;4.606;2022-07-06T09:41:43;28.10;71.80
43581;DHT22;29175;51.030;4.606;2022-07-06T09:44:09;27.90;72.60
43581;DHT22;29175;51.030;4.606;2022-07-06T09:46:43;28.30;72.00
43581;DHT22;29175;51.030;4.606;2022-07-06T09:49:11;28.70;71.80
43581;DHT22;29175;51.030;4.606;2022-07-06T09:51:37;28.10;72.20
43581;DHT22;29175;51.030;4.606;2022-07-06T09:54:07;28.10;71.20
43581;DHT22;29175;51.030;4.606;2022-07-06T09:56:41;28.10;70.30
43581;DHT22;29175;51.030;4.606;2022-07-06T09:59:11;28.00;72.10
43581;DHT22;29175;51.030;4.606;2022-07-06T10:01:38;28.70;72.40
43581;DHT22;29175;51.030;4.606;2022-07-06T10:04:06;30.00;72.50
43581;DHT22;29175;51.030;4.606;2022-07-06T10:06:32;31.60;69.90
43581;DHT22;29175;51.030;4.606;2022-07-06T10:08:58;31.50;68.40
43581;DHT22;29175;51.030;4.606;2022-07-06T10:11:25;32.50;67.90
43581;DHT22;29175;51.030;4.606;2022-07-06T10:13:56;33.60;66.40
43581;DHT22;29175;51.030;4.606;2022-07-06T10:16:25;32.40;68.20
43581;DHT22;29175;51.030;4.606;2022-07-06T10:18:52;33.00;65.30
43581;DHT22;29175;51.030;4.606;2022-07-06T10:21:23;32.00;63.40
43581;DHT22;29175;51.030;4.606;2022-07-06T10:23:50;30.90;67.40
43581;DHT22;29175;51.030;4.606;2022-07-06T10:26:17;30.90;67.90
43581;DHT22;29175;51.030;4.606;2022-07-06T10:28:44;30.80;69.60
43581;DHT22;29175;51.030;4.606;2022-07-06T10:31:13;30.90;69.90
43581;DHT22;29175;51.030;4.606;2022-07-06T10:33:40;30.30;69.30
43581;DHT22;29175;51.030;4.606;2022-07-06T10:36:07;30.20;69.20
43581;DHT22;29175;51.030;4.606;2022-07-06T10:38:34;30.10;69.00
43581;DHT22;29175;51.030;4.606;2022-07-06T10:41:06;30.40;68.50
43581;DHT22;29175;51.030;4.606;2022-07-06T10:43:42;30.30;68.20
43581;DHT22;29175;51.030;4.606;2022-07-06T10:46:13;30.40;69.60
43581;DHT22;29175;51.030;4.606;2022-07-06T10:48:47;31.10;68.20
43581;DHT22;29175;51.030;4.606;2022-07-06T10:51:27;31.50;67.70
43581;DHT22;29175;51.030;4.606;2022-07-06T10:56:33;30.80;68.50
43581;DHT22;29175;51.030;4.606;2022-07-06T10:59:16;31.10;67.60
43581;DHT22;29175;51.030;4.606;2022-07-06T11:04:36;31.30;65.10
43581;DHT22;29175;51.030;4.606;2022-07-06T11:07:17;31.40;68.10
43581;DHT22;29175;51.030;4.606;2022-07-06T11:09:57;31.60;67.00
43581;DHT22;29175;51.030;4.606;2022-07-06T11:12:23;31.20;68.10
43581;DHT22;29175;51.030;4.606;2022-07-06T11:14:51;30.60;69.20
43581;DHT22;29175;51.030;4.606;2022-07-06T11:17:17;30.80;68.30
43581;DHT22;29175;51.030;4.606;2022-07-06T11:20:08;31.90;68.50
43581;DHT22;29175;51.030;4.606;2022-07-06T11:22:36;32.80;66.60
43581;DHT22;29175;51.030;4.606;2022-07-06T11:25:03;34.20;65.60
43581;DHT22;29175;51.030;4.606;2022-07-06T11:27:29;35.10;63.10
43581;DHT22;29175;51.030;4.606;2022-07-06T11:29:55;35.60;62.10
43581;DHT22;29175;51.030;4.606;2022-07-06T11:32:27;33.70;64.00
43581;DHT22;29175;51.030;4.606;2022-07-06T11:34:54;34.30;64.40
43581;DHT22;29175;51.030;4.606;2022-07-06T11:37:20;34.40;63.70
43581;DHT22;29175;51.030;4.606;2022-07-06T11:39:47;33.60;64.80
43581;DHT22;29175;51.030;4.606;2022-07-06T11:42:16;33.30;63.00
43581;DHT22;29175;51.030;4.606;2022-07-06T11:44:43;33.00;63.90
43581;DHT22;29175;51.030;4.606;2022-07-06T11:47:10;33.00;65.00
43581;DHT22;29175;51.030;4.606;2022-07-06T11:49:37;32.10;65.50
43581;DHT22;29175;51.030;4.606;2022-07-06T11:52:11;31.60;67.40
43581;DHT22;29175;51.030;4.606;2022-07-06T11:54:38;31.70;65.30
43581;DHT22;29175;51.030;4.606;2022-07-06T11:57:07;31.20;65.60
43581;DHT22;29175;51.030;4.606;2022-07-06T11:59:34;31.10;68.10
43581;DHT22;29175;51.030;4.606;2022-07-06T12:02:04;30.80;68.10
43581;DHT22;29175;51.030;4.606;2022-07-06T12:04:34;30.70;69.40
43581;DHT22;29175;51.030;4.606;2022-07-06T12:07:01;30.90;68.20
43581;DHT22;29175;51.030;4.606;2022-07-06T12:09:33;30.20;68.00
43581;DHT22;29175;51.030;4.606;2022-07-06T12:12:00;30.00;70.10
43581;DHT22;29175;51.030;4.606;2022-07-06T12:14:32;29.90;68.10
43581;DHT22;29175;51.030;4.606;2022-07-06T12:17:09;29.90;70.20
43581;DHT22;29175;51.030;4.606;2022-07-06T12:19:36;30.20;69.10
43581;DHT22;29175;51.030;4.606;2022-07-06T12:22:04;29.90;69.50
43581;DHT22;29175;51.030;4.606;2022-07-06T12:24:31;29.60;71.60
43581;DHT22;29175;51.030;4.606;2022-07-06T12:26:59;28.60;71.20
43581;DHT22;29175;51.030;4.606;2022-07-06T12:29:34;28.60;70.50
43581;DHT22;29175;51.030;4.606;2022-07-06T12:32:00;28.60;71.40
43581;DHT22;29175;51.030;4.606;2022-07-06T12:34:28;28.20;74.10
43581;DHT22;29175;51.030;4.606;2022-07-06T12:36:58;28.70;71.50
43581;DHT22;29175;51.030;4.606;2022-07-06T12:39:26;29.00;72.30
43581;DHT22;29175;51.030;4.606;2022-07-06T12:42:02;28.80;70.60
43581;DHT22;29175;51.030;4.606;2022-07-06T12:44:30;28.10;71.10
43581;DHT22;29175;51.030;4.606;2022-07-06T12:47:07;27.60;74.00
43581;DHT22;29175;51.030;4.606;2022-07-06T12:49:35;27.30;72.80
43581;DHT22;29175;51.030;4.606;2022-07-06T12:52:08;26.90;74.40
43581;DHT22;29175;51.030;4.606;2022-07-06T12:54:42;27.10;75.80
43581;DHT22;29175;51.030;4.606;2022-07-06T12:57:19;27.40;77.10
43581;DHT22;29175;51.030;4.606;2022-07-06T12:59:48;27.00;75.80
43581;DHT22;29175;51.030;4.606;2022-07-06T13:05:07;27.70;75.30
43581;DHT22;29175;51.030;4.606;2022-07-06T13:07:37;27.60;75.10
43581;DHT22;29175;51.030;4.606;2022-07-06T13:12:30;27.70;74.10
43581;DHT22;29175;51.030;4.606;2022-07-06T13:14:56;26.70;74.10
43581;DHT22;29175;51.030;4.606;2022-07-06T13:17:22;26.70;77.00
43581;DHT22;29175;51.030;4.606;2022-07-06T13:19:50;27.10;76.90
43581;DHT22;29175;51.030;4.606;2022-07-06T13:22:17;27.60;76.50
43581;DHT22;29175;51.030;4.606;2022-07-06T13:24:46;27.40;75.40
43581;DHT22;29175;51.030;4.606;2022-07-06T13:27:13;27.50;76.40
43581;DHT22;29175;51.030;4.606;2022-07-06T13:29:39;27.80;75.30
43581;DHT22;29175;51.030;4.606;2022-07-06T13:32:05;27.20;77.70
43581;DHT22;29175;51.030;4.606;2022-07-06T13:34:32;27.50;75.70
43581;DHT22;29175;51.030;4.606;2022-07-06T13:36:58;27.90;77.50
43581;DHT22;29175;51.030;4.606;2022-07-06T13:39:24;27.50;76.30
43581;DHT22;29175;51.030;4.606;2022-07-06T13:41:53;27.90;77.30
43581;DHT22;29175;51.030;4.606;2022-07-06T13:44:19;28.00;78.10
43581;DHT22;29175;51.030;4.606;2022-07-06T13:46:46;28.10;75.30
43581;DHT22;29175;51.030;4.606;2022-07-06T13:49:12;27.80;77.30
43581;DHT22;29175;51.030;4.606;2022-07-06T13:51:38;27.80;74.90
43581;DHT22;29175;51.030;4.606;2022-07-06T13:54:08;27.90;77.90
43581;DHT22;29175;51.030;4.606;2022-07-06T13:56:34;27.90;77.70
43581;DHT22;29175;51.030;4.606;2022-07-06T13:58:59;27.40;77.30
43581;DHT22;29175;51.030;4.606;2022-07-06T14:01:25;27.00;79.90
43581;DHT22;29175;51.030;4.606;2022-07-06T14:03:51;27.10;79.20
43581;DHT22;29175;51.030;4.606;2022-07-06T14:06:19;27.60;79.50
43581;DHT22;29175;51.030;4.606;2022-07-06T14:08:47;27.80;78.70
43581;DHT22;29175;51.030;4.606;2022-07-06T14:11:15;27.90;80.10
43581;DHT22;29175;51.030;4.606;2022-07-06T14:13:41;27.90;76.90
43581;DHT22;29175;51.030;4.606;2022-07-06T14:16:06;27.80;77.60
43581;DHT22;29175;51.030;4.606;2022-07-06T14:18:35;27.90;78.10
43581;DHT22;29175;51.030;4.606;2022-07-06T14:21:02;27.70;79.10
43581;DHT22;29175;51.030;4.606;2022-07-06T14:23:30;28.10;78.10
43581;DHT22;29175;51.030;4.606;2022-07-06T14:25:57;27.70;77.10
43581;DHT22;29175;51.030;4.606;2022-07-06T14:28:23;27.60;78.70
43581;DHT22;29175;51.030;4.606;2022-07-06T14:30:48;27.70;79.40
43581;DHT22;29175;51.030;4.606;2022-07-06T14:33:16;27.90;79.70
43581;DHT22;29175;51.030;4.606;2022-07-06T14:35:45;28.00;77.60
43581;DHT22;29175;51.030;4.606;2022-07-06T14:38:18;28.00;77.40
43581;DHT22;29175;51.030;4.606;2022-07-06T14:40:46;27.80;78.10
43581;DHT22;29175;51.030;4.606;2022-07-06T14:43:13;28.00;77.40
43581;DHT22;29175;51.030;4.606;2022-07-06T14:45:40;28.30;76.70
43581;DHT22;29175;51.030;4.606;2022-07-06T14:48:06;28.30;77.60
43581;DHT22;29175;51.030;4.606;2022-07-06T14:50:37;28.30;78.20
43581;DHT22;29175;51.030;4.606;2022-07-06T14:53:03;28.30;77.70
43581;DHT22;29175;51.030;4.606;2022-07-06T14:55:29;28.10;77.20
43581;DHT22;29175;51.030;4.606;2022-07-06T14:57:56;27.70;79.00
43581;DHT22;29175;51.030;4.606;2022-07-06T15:00:23;27.70;79.00
43581;DHT22;29175;51.030;4.606;2022-07-06T15:02:49;27.70;77.00
43581;DHT22;29175;51.030;4.606;2022-07-06T15:05:15;27.70;78.20
43581;DHT22;29175;51.030;4.606;2022-07-06T15:07:40;27.70;77.00
43581;DHT22;29175;51.030;4.606;2022-07-06T15:10:07;27.10;77.80
43581;DHT22;29175;51.030;4.606;2022-07-06T15:12:36;27.10;78.50
43581;DHT22;29175;51.030;4.606;2022-07-06T15:15:05;27.30;78.90
43581;DHT22;29175;51.030;4.606;2022-07-06T15:17:32;27.30;78.90
43581;DHT22;29175;51.030;4.606;2022-07-06T15:19:59;27.10;79.30
43581;DHT22;29175;51.030;4.606;2022-07-06T15:22:25;27.30;79.10
43581;DHT22;29175;51.030;4.606;2022-07-06T15:24:54;27.00;79.10
43581;DHT22;29175;51.030;4.606;2022-07-06T15:27:22;27.30;79.10
43581;DHT22;29175;51.030;4.606;2022-07-06T15:29:48;27.30;79.50
43581;DHT22;29175;51.030;4.606;2022-07-06T15:32:15;27.40;79.60
43581;DHT22;29175;51.030;4.606;2022-07-06T15:34:43;27.50;79.20
43581;DHT22;29175;51.030;4.606;2022-07-06T15:37:10;27.40;78.50
43581;DHT22;29175;51.030;4.606;2022-07-06T15:39:38;27.40;80.10
43581;DHT22;29175;51.030;4.606;2022-07-06T15:42:04;27.30;79.90
43581;DHT22;29175;51.030;4.606;2022-07-06T15:44:31;26.80;80.40
43581;DHT22;29175;51.030;4.606;2022-07-06T15:47:03;26.70;80.50
43581;DHT22;29175;51.030;4.606;2022-07-06T15:49:30;26.80;80.70
43581;DHT22;29175;51.030;4.606;2022-07-06T15:51:56;27.10;80.30